createdAt,value
2023-02-17T00:02:24.313Z,-1.14
2023-02-17T00:06:28.472Z,-1.11
2023-02-17T00:10:31.056Z,-1.11
2023-02-17T00:14:33.635Z,-1.44
2023-02-17T00:18:38.038Z,-1.50
2023-02-17T00:22:40.625Z,-1.49
2023-02-17T00:26:43.347Z,-1.46
2023-02-17T00:30:45.988Z,-1.40
2023-02-17T00:34:49.920Z,-1.43
2023-02-17T00:38:54.325Z,-1.45
2023-02-17T00:42:56.891Z,-1.48
2023-02-17T00:46:59.472Z,-1.62
2023-02-17T00:51:04.568Z,-1.71
2023-02-17T00:55:07.605Z,-1.77
2023-02-17T00:59:10.551Z,-1.70
2023-02-17T01:03:13.258Z,-1.66
2023-02-17T01:07:17.217Z,-1.67
2023-02-17T01:11:19.946Z,-1.65
2023-02-17T01:15:22.554Z,-1.60
2023-02-17T01:19:25.152Z,-1.54
2023-02-17T01:23:29.097Z,-1.50
2023-02-17T01:27:32.530Z,-1.43
2023-02-17T01:31:35.646Z,-1.47
2023-02-17T01:35:38.476Z,-1.49
2023-02-17T01:39:42.418Z,-1.55
2023-02-17T01:44:10.704Z,-1.49
2023-02-17T01:48:17.896Z,-1.44
2023-02-17T01:52:24.445Z,-1.46
2023-02-17T01:56:30.811Z,-1.47
2023-02-17T02:00:35.202Z,-1.44
2023-02-17T02:04:40.313Z,-1.29
2023-02-17T02:08:52.211Z,-1.20
2023-02-17T02:12:56.159Z,-1.14
2023-02-17T02:17:09.886Z,-1.10
2023-02-17T02:21:39.540Z,-1.02
2023-02-17T02:26:05.135Z,-1.05
2023-02-17T02:30:33.511Z,-1.01
2023-02-17T02:34:43.287Z,-1.07
2023-02-17T02:38:53.260Z,-1.10
2023-02-17T02:42:57.089Z,-1.10
2023-02-17T02:47:01.016Z,-1.12
2023-02-17T02:51:39.259Z,-1.15
2023-02-17T02:55:54.425Z,-1.21
2023-02-17T03:00:11.998Z,-1.25
2023-02-17T03:04:20.558Z,-1.27
2023-02-17T03:08:32.662Z,-1.21
2023-02-17T03:12:38.180Z,-1.20
2023-02-17T03:16:43.248Z,-1.15
2023-02-17T03:20:52.113Z,-1.01
2023-02-17T03:24:54.881Z,-0.97
2023-02-17T03:28:58.906Z,-0.97
2023-02-17T03:33:01.528Z,-0.91
2023-02-17T03:37:04.614Z,-0.87
2023-02-17T03:41:07.253Z,-0.84
2023-02-17T03:45:11.704Z,-0.81
2023-02-17T03:49:14.477Z,-0.83
2023-02-17T03:53:17.109Z,-0.82
2023-02-17T03:57:20.040Z,-0.87
2023-02-17T04:01:24.120Z,-0.81
2023-02-17T04:05:26.727Z,-0.80
2023-02-17T04:09:29.346Z,-0.69
2023-02-17T04:13:32.140Z,-0.69
2023-02-17T04:17:37.142Z,-0.70
2023-02-17T04:21:39.801Z,-0.68
2023-02-17T04:25:43.085Z,-0.61
2023-02-17T04:29:45.705Z,-0.55
2023-02-17T04:33:49.723Z,-0.51
2023-02-17T04:37:52.724Z,-0.46
2023-02-17T04:41:55.347Z,-0.36
2023-02-17T04:45:58.372Z,-0.29
2023-02-17T04:50:02.551Z,-0.26
2023-02-17T04:54:05.343Z,-0.23
2023-02-17T04:58:08.455Z,-0.19
2023-02-17T05:02:11.357Z,-0.21
2023-02-17T05:06:15.310Z,-0.24
2023-02-17T05:10:19.016Z,-0.21
2023-02-17T05:14:21.606Z,-0.18
2023-02-17T05:18:24.242Z,-0.19
2023-02-17T05:22:28.438Z,-0.15
2023-02-17T05:26:31.236Z,-0.17
2023-02-17T05:30:33.875Z,-0.15
2023-02-17T05:34:36.796Z,-0.22
2023-02-17T05:38:41.371Z,-0.21
2023-02-17T06:00:33.891Z,-0.12
2023-02-17T06:04:36.659Z,-0.13
2023-02-17T06:08:41.386Z,-0.07
2023-02-17T06:12:45.810Z,-0.11
2023-02-17T06:16:48.558Z,-0.06
2023-02-17T06:20:51.350Z,0.62
2023-02-17T06:24:54.048Z,1.03
2023-02-17T06:28:58.123Z,1.25
2023-02-17T06:33:00.782Z,1.92
2023-02-17T06:37:03.376Z,1.69
2023-02-17T06:41:06.284Z,1.13
2023-02-17T06:45:11.020Z,0.90
2023-02-17T06:49:14.363Z,0.74
2023-02-17T06:53:17.032Z,0.62
2023-02-17T06:57:19.785Z,0.54
2023-02-17T07:01:27.584Z,0.50
2023-02-17T07:05:30.458Z,0.53
2023-02-17T07:09:33.196Z,0.50
2023-02-17T07:13:36.242Z,0.51
2023-02-17T07:17:40.390Z,0.51
2023-02-17T07:21:43.416Z,0.54
2023-02-17T07:25:46.240Z,0.64
2023-02-17T07:29:48.931Z,0.69
2023-02-17T07:33:52.980Z,0.78
2023-02-17T07:37:57.998Z,0.90
2023-02-17T07:42:01.099Z,1.07
2023-02-17T07:46:03.971Z,1.22
2023-02-17T07:50:09.582Z,1.37
2023-02-17T07:54:15.406Z,1.48
2023-02-17T07:58:18.296Z,1.64
2023-02-17T08:02:21.017Z,1.77
2023-02-17T08:06:26.851Z,1.95
2023-02-17T08:10:47.194Z,2.15
2023-02-17T08:14:49.851Z,2.34
2023-02-17T08:18:52.482Z,2.49
2023-02-17T08:22:56.432Z,2.68
2023-02-17T08:26:59.100Z,2.99
2023-02-17T08:31:03.217Z,3.34
2023-02-17T08:35:07.013Z,3.58
2023-02-17T08:39:15.279Z,3.92
2023-02-17T08:43:17.935Z,4.10
2023-02-17T08:47:20.615Z,4.38
2023-02-17T08:51:26.109Z,4.72
2023-02-17T08:55:35.575Z,4.98
2023-02-17T08:59:48.064Z,5.46
2023-02-17T09:03:52.658Z,5.97
2023-02-17T09:07:55.300Z,6.36
2023-02-17T09:11:59.754Z,6.66
2023-02-17T09:16:02.607Z,6.79
2023-02-17T09:20:16.290Z,7.00
2023-02-17T09:24:25.822Z,7.22
2023-02-17T09:28:29.762Z,7.35
2023-02-17T10:04:20.568Z,8.94
2023-02-17T10:08:28.173Z,9.21
2023-02-17T10:12:37.311Z,9.42
2023-02-17T10:16:49.203Z,9.45
2023-02-17T10:20:59.569Z,9.46
2023-02-17T10:25:04.231Z,9.54
2023-02-17T10:29:13.799Z,9.65
2023-02-17T10:33:24.595Z,9.77
2023-02-17T10:37:38.804Z,9.89
2023-02-17T10:41:44.179Z,9.95
2023-02-17T10:45:49.557Z,10.01
2023-02-17T10:49:54.615Z,10.01
2023-02-17T10:54:04.812Z,9.95
2023-02-17T10:58:14.378Z,9.98
2023-02-17T11:02:20.285Z,10.02
2023-02-17T11:06:24.421Z,10.12
2023-02-17T11:10:32.701Z,10.14
2023-02-17T11:14:38.279Z,10.16
2023-02-17T11:18:48.912Z,10.22
2023-02-17T11:23:03.587Z,10.38
2023-02-17T11:27:12.025Z,10.45
2023-02-17T11:31:24.986Z,10.49
2023-02-17T11:35:46.134Z,10.50
2023-02-17T11:39:50.728Z,10.51
2023-02-17T11:43:58.585Z,10.54
2023-02-17T11:48:27.435Z,10.60
2023-02-17T11:52:44.079Z,10.68
2023-02-17T11:56:57.409Z,10.69
2023-02-17T12:01:11.117Z,10.73
2023-02-17T12:05:23.569Z,10.68
2023-02-17T12:09:34.218Z,10.67
2023-02-17T12:13:56.809Z,10.70
2023-02-17T12:18:13.536Z,10.77
2023-02-17T12:22:20.121Z,10.79
2023-02-17T12:26:34.675Z,10.89
2023-02-17T12:30:55.507Z,10.97
2023-02-17T12:35:04.826Z,11.12
2023-02-17T12:39:14.728Z,11.13
2023-02-17T12:43:26.917Z,11.11
2023-02-17T12:47:36.300Z,11.12
2023-02-17T12:51:45.354Z,11.09
2023-02-17T12:55:54.145Z,11.14
2023-02-17T12:59:59.630Z,11.14
2023-02-17T13:04:03.336Z,11.21
2023-02-17T13:08:11.408Z,11.06
2023-02-17T13:12:40.482Z,10.99
2023-02-17T13:16:44.582Z,10.97
2023-02-17T13:20:56.928Z,11.01
2023-02-17T13:25:01.053Z,11.00
2023-02-17T13:29:22.563Z,10.84
2023-02-17T13:33:32.738Z,10.50
2023-02-17T13:37:41.875Z,10.24
2023-02-17T13:41:48.712Z,10.09
2023-02-17T13:45:58.214Z,10.01
2023-02-17T13:50:01.127Z,9.94
2023-02-17T13:54:09.232Z,9.97
2023-02-17T13:58:13.251Z,9.96
2023-02-17T14:02:35.073Z,10.02
2023-02-17T14:06:40.522Z,9.95
2023-02-17T14:10:43.279Z,9.92
2023-02-17T14:14:47.625Z,9.90
2023-02-17T14:18:50.351Z,9.96
2023-02-17T14:23:04.253Z,9.97
2023-02-17T14:27:09.557Z,10.01
2023-02-17T14:35:52.283Z,10.00
2023-02-17T14:39:54.907Z,10.06
2023-02-17T14:44:03.254Z,10.15
2023-02-17T14:48:11.768Z,10.17
2023-02-17T14:52:36.151Z,10.17
2023-02-17T14:56:59.025Z,10.34
2023-02-17T15:01:07.862Z,10.64
2023-02-17T15:05:33.674Z,10.88
2023-02-17T15:09:40.040Z,10.69
2023-02-17T15:13:47.968Z,10.45
2023-02-17T15:18:00.699Z,10.57
2023-02-17T15:22:14.720Z,10.53
2023-02-17T15:26:26.569Z,10.50
2023-02-17T15:30:29.257Z,10.36
2023-02-17T15:34:42.601Z,10.34
2023-02-17T15:38:47.122Z,10.41
2023-02-17T15:42:54.522Z,10.46
2023-02-17T15:46:58.317Z,10.40
2023-02-17T15:51:16.376Z,10.34
2023-02-17T15:55:25.792Z,10.31
2023-02-17T15:59:43.305Z,10.29
2023-02-17T16:03:46.990Z,10.32
2023-02-17T16:07:52.168Z,10.35
2023-02-17T16:11:57.389Z,10.35
2023-02-17T16:16:00.547Z,10.32
2023-02-17T16:20:03.419Z,10.31
2023-02-17T16:24:08.428Z,10.41
2023-02-17T16:28:28.294Z,10.45
2023-02-17T16:33:10.063Z,10.52
2023-02-17T16:37:17.488Z,10.52
2023-02-17T16:41:26.202Z,10.48
2023-02-17T16:45:33.433Z,10.51
2023-02-17T16:49:44.648Z,10.43
2023-02-17T16:53:47.340Z,10.39
2023-02-17T16:57:51.407Z,10.35
2023-02-17T17:01:55.463Z,10.35
2023-02-17T17:05:58.272Z,10.26
2023-02-17T17:10:16.018Z,10.21
2023-02-17T17:14:21.677Z,10.18
2023-02-17T17:18:27.028Z,10.18
2023-02-17T17:22:29.667Z,10.18
2023-02-17T17:26:34.228Z,10.15
2023-02-17T17:30:37.339Z,10.09
2023-02-17T17:34:41.530Z,10.08
2023-02-17T17:38:44.294Z,10.08
2023-02-17T17:42:47.232Z,10.13
2023-02-17T17:46:49.985Z,10.18
2023-02-17T17:50:54.171Z,10.13
2023-02-17T17:54:56.996Z,10.07
2023-02-17T17:59:01.977Z,9.99
2023-02-17T18:03:05.922Z,9.97
2023-02-17T18:07:10.247Z,9.88
2023-02-17T18:11:14.510Z,9.81
2023-02-17T18:15:18.246Z,9.76
2023-02-17T18:19:21.253Z,9.68
2023-02-17T18:23:25.278Z,9.57
2023-02-17T18:27:28.056Z,9.52
2023-02-17T18:31:30.933Z,9.50
2023-02-17T18:35:36.014Z,9.58
2023-02-17T18:39:40.298Z,9.61
2023-02-17T18:43:42.957Z,9.65
2023-02-17T18:47:46.282Z,9.65
2023-02-17T18:51:49.092Z,9.70
2023-02-17T18:55:53.176Z,9.69
2023-02-17T18:59:55.874Z,9.71
2023-02-17T19:04:15.614Z,9.72
2023-02-17T19:08:21.797Z,9.74
2023-02-17T19:12:27.813Z,9.79
2023-02-17T19:16:32.512Z,9.81
2023-02-17T19:20:37.172Z,9.76
2023-02-17T19:24:45.958Z,9.75
2023-02-17T19:28:52.058Z,9.81
2023-02-17T19:33:00.346Z,9.78
2023-02-17T19:37:03.176Z,9.76
2023-02-17T19:41:08.707Z,9.65
2023-02-17T19:45:12.728Z,9.61
2023-02-17T19:49:21.400Z,9.59
2023-02-17T19:53:24.640Z,9.60
2023-02-17T19:57:29.076Z,9.62
2023-02-17T20:01:36.968Z,9.60
2023-02-17T20:05:43.406Z,9.64
2023-02-17T20:09:46.016Z,9.68
2023-02-17T20:13:48.729Z,9.67
2023-02-17T20:17:53.266Z,9.82
2023-02-17T20:22:04.087Z,9.81
2023-02-17T20:26:08.068Z,9.80
2023-02-17T20:30:11.542Z,9.81
2023-02-17T20:34:27.030Z,9.70
2023-02-17T20:38:29.659Z,9.59
2023-02-17T20:42:37.484Z,9.55
2023-02-17T20:46:42.479Z,9.47
2023-02-17T20:50:50.155Z,9.40
2023-02-17T20:54:55.248Z,9.41
2023-02-17T20:59:04.469Z,9.41
2023-02-17T21:03:10.079Z,9.48
2023-02-17T21:07:14.233Z,9.46
2023-02-17T21:11:16.951Z,9.49
2023-02-17T21:15:24.773Z,9.47
2023-02-17T21:19:29.659Z,9.37
2023-02-17T21:23:34.527Z,9.29
2023-02-17T21:27:45.117Z,9.16
2023-02-17T21:31:59.125Z,9.03
2023-02-17T21:36:06.578Z,8.92
2023-02-17T21:40:12.575Z,8.87
2023-02-17T21:44:37.430Z,8.82
2023-02-17T21:48:45.000Z,8.82
2023-02-17T21:52:47.599Z,8.77
2023-02-17T21:56:57.601Z,8.76
2023-02-17T22:01:05.090Z,8.78
2023-02-17T22:05:08.160Z,8.75
2023-02-17T22:09:13.920Z,8.77
2023-02-17T22:13:24.032Z,8.78
2023-02-17T22:17:26.995Z,8.74
2023-02-17T22:21:32.551Z,8.73
2023-02-17T22:25:35.348Z,8.77
2023-02-17T22:29:39.369Z,8.76
2023-02-17T22:33:42.252Z,8.77
2023-02-17T22:37:44.868Z,8.80
2023-02-17T22:41:47.498Z,8.80
2023-02-17T22:45:58.451Z,8.79
2023-02-17T22:50:01.201Z,8.83
2023-02-17T22:54:04.426Z,8.89
2023-02-17T22:58:07.077Z,8.97
2023-02-17T23:02:11.045Z,9.03
2023-02-17T23:06:17.842Z,9.07
2023-02-17T23:10:21.017Z,9.08
2023-02-17T23:14:26.788Z,9.14
2023-02-17T23:18:32.715Z,9.25
2023-02-17T23:22:35.373Z,9.32
2023-02-17T23:26:38.000Z,9.39
2023-02-17T23:30:41.971Z,9.44
2023-02-17T23:34:46.075Z,9.46
2023-02-17T23:38:48.835Z,9.43
2023-02-17T23:42:51.493Z,9.51
2023-02-17T23:46:54.120Z,9.47
2023-02-17T23:50:59.886Z,9.46
2023-02-17T23:55:02.617Z,9.47
2023-02-17T23:59:05.467Z,9.47
